Cse Prosperity Expr. — 3EES5 — position and weather

sailwx.info

Track history (hours):
 
Tides and Currents Weather Stations Pressure Air Temp Water Temp Dewpoint Dewpoint Depression Visibility Wind Speed Wind Dir Waves Ship Positions

Cse Prosperity Expr.

Last reported at 2017-Feb-16 10:32 UTC. Time now 2017-Feb-19 14:26 UTC.
Position N 22°42' E 120°05'.

Length 168 m; draft 5.7 m.

Type: Cargo ship. MMSI: 371801000.

Date/timePositionNaut miles runAvg speedWind from/ knotsBaromVisibWave heightAir tempDewpointWater temp
2017-Feb-16 10:32N 22°42' E 120°05'1212.0
2017-Feb-16 09:33N 22°37' E 120°16'2 1.9
2017-Feb-16 08:31N 22°36' E 120°18'0 0.0
2017-Feb-16 07:31N 22°36' E 120°18'0 0.0
2017-Feb-16 06:31N 22°36' E 120°18'0 0.0
2017-Feb-16 05:25N 22°36' E 120°18'0 0.0
2017-Feb-16 04:31N 22°36' E 120°18'0 0.0
2017-Feb-16 03:28N 22°36' E 120°18'0 0.0
2017-Feb-16 02:31N 22°36' E 120°18'0 0.0
2017-Feb-16 01:28N 22°36' E 120°18'0 0.0
2017-Feb-16 00:31N 22°36' E 120°18'0 0.0
2017-Feb-15 23:31N 22°36' E 120°18'0 0.0
2017-Feb-15 22:31N 22°36' E 120°18'0 0.0
2017-Feb-15 21:22N 22°36' E 120°18'0 0.0
2017-Feb-15 20:31N 22°36' E 120°18'0 0.0
2017-Feb-15 19:31N 22°36' E 120°18'0 0.0
2017-Feb-15 18:19N 22°36' E 120°18'0 0.0
2017-Feb-15 17:28N 22°36' E 120°18'0 0.0
2017-Feb-15 16:31N 22°36' E 120°18'0 0.0
2017-Feb-15 15:28N 22°36' E 120°18'0 0.0
2017-Feb-15 14:31N 22°36' E 120°18'0 0.0
2017-Feb-15 13:31N 22°36' E 120°18'0 0.0
2017-Feb-15 12:31N 22°36' E 120°18'0 0.0
2017-Feb-15 11:31N 22°36' E 120°18'0 0.0
2017-Feb-15 10:22N 22°36' E 120°18'0 0.0
2017-Feb-15 09:25N 22°36' E 120°18'0 0.0
2017-Feb-15 08:22N 22°36' E 120°18'0 0.0
2017-Feb-15 07:22N 22°36' E 120°18'0 0.0
2017-Feb-15 06:16N 22°36' E 120°18'0 0.0
2017-Feb-15 05:31N 22°36' E 120°18'0 0.0
2017-Feb-15 04:31N 22°36' E 120°18'1 0.7
2017-Feb-15 03:33N 22°37' E 120°17'6 6.0
2017-Feb-15 02:33N 22°38' E 120°11'1010.2
2017-Feb-15 01:33N 22°47' E 120°06'  
2017-Feb-11 09:20N 33°57' E 134°55'912.0
2017-Feb-11 08:33N 34°05' E 134°60'1110.6
2017-Feb-11 07:34N 34°14' E 135°06'1 0.6
2017-Feb-11 06:31N 34°14' E 135°07'0 0.0
2017-Feb-11 05:31N 34°14' E 135°07'0 0.0
2017-Feb-11 04:31N 34°14' E 135°07'0 0.0
2017-Feb-11 03:31N 34°14' E 135°07'0 0.0
2017-Feb-11 02:28N 34°14' E 135°07'0 0.0
2017-Feb-11 01:16N 34°14' E 135°07'0 0.0
2017-Feb-11 00:13N 34°14' E 135°07'0 0.0
2017-Feb-10 23:31N 34°14' E 135°07'0 0.0
2017-Feb-10 22:31N 34°14' E 135°07'0 0.0
2017-Feb-10 21:31N 34°14' E 135°07'0 0.0
2017-Feb-10 20:31N 34°14' E 135°07'0 0.0
2017-Feb-10 19:31N 34°14' E 135°07'0 0.0
2017-Feb-10 18:31N 34°14' E 135°07'0 0.0
2017-Feb-10 17:31N 34°14' E 135°07'0 0.0
2017-Feb-10 16:31N 34°14' E 135°07'0 0.0
2017-Feb-10 15:25N 34°14' E 135°07'0 0.0
2017-Feb-10 14:31N 34°14' E 135°07'0 0.0
2017-Feb-10 13:31N 34°14' E 135°07'0 0.0
2017-Feb-10 12:31N 34°14' E 135°07'0 0.0
2017-Feb-10 11:31N 34°14' E 135°07'0 0.0
2017-Feb-10 10:31N 34°14' E 135°07'0 0.0
2017-Feb-10 09:31N 34°14' E 135°07'0 0.0
2017-Feb-10 08:31N 34°14' E 135°07'0 0.0
2017-Feb-10 07:31N 34°14' E 135°07'0 0.0
2017-Feb-10 06:31N 34°14' E 135°07'0 0.0
2017-Feb-10 05:31N 34°14' E 135°07'0 0.0
2017-Feb-10 04:31N 34°14' E 135°07'0 0.0
2017-Feb-10 03:31N 34°14' E 135°07'0 0.0
2017-Feb-10 02:31N 34°14' E 135°07'0 0.0
2017-Feb-10 01:31N 34°14' E 135°07'0 0.0
2017-Feb-10 00:31N 34°14' E 135°07'0 0.0
2017-Feb-09 23:25N 34°14' E 135°07'0 0.0
2017-Feb-09 22:31N 34°14' E 135°07'0 0.0
2017-Feb-09 21:31N 34°14' E 135°07'0 0.0
2017-Feb-09 20:31N 34°14' E 135°07'0 0.0
2017-Feb-09 19:28N 34°14' E 135°07'0 0.0
2017-Feb-09 18:31N 34°14' E 135°07'0 0.0
2017-Feb-09 17:31N 34°14' E 135°07'0 0.0
2017-Feb-09 16:31N 34°14' E 135°07'0 0.0
2017-Feb-09 15:31N 34°14' E 135°07'0 0.0
2017-Feb-09 14:31N 34°14' E 135°07'0 0.0
2017-Feb-09 13:31N 34°14' E 135°07'0 0.0
2017-Feb-09 12:31N 34°14' E 135°07'0 0.0
2017-Feb-09 11:31N 34°14' E 135°07'0 0.0
2017-Feb-09 10:31N 34°14' E 135°07'0 0.0
2017-Feb-09 09:28N 34°14' E 135°07'0 0.0
2017-Feb-09 08:31N 34°14' E 135°07'0 0.0
2017-Feb-09 07:31N 34°14' E 135°07'0 0.0
2017-Feb-09 06:28N 34°14' E 135°07'0 0.0
2017-Feb-09 05:28N 34°14' E 135°07'0 0.0
2017-Feb-09 04:28N 34°14' E 135°07'0 0.0
2017-Feb-09 03:25N 34°14' E 135°07'0 0.0
2017-Feb-09 02:31N 34°14' E 135°07'0 0.0
2017-Feb-09 01:31N 34°14' E 135°07'0 0.0
2017-Feb-09 00:31N 34°14' E 135°07'0 0.0
2017-Feb-08 23:31N 34°14' E 135°07'0 0.0
2017-Feb-08 22:22N 34°14' E 135°07'0 0.0
2017-Feb-08 21:31N 34°14' E 135°07'0 0.0
2017-Feb-08 20:28N 34°14' E 135°07'0 0.0
2017-Feb-08 19:25N 34°14' E 135°07'0 0.0
2017-Feb-08 18:31N 34°14' E 135°07'0 0.0
2017-Feb-08 17:31N 34°14' E 135°07'0 0.0
2017-Feb-08 16:31N 34°14' E 135°07'0 0.0
2017-Feb-08 15:31N 34°14' E 135°07'0 0.0
2017-Feb-08 14:31N 34°14' E 135°07'0 0.0
2017-Feb-08 13:31N 34°14' E 135°07'0 0.0
2017-Feb-08 12:31N 34°14' E 135°07'0 0.0
2017-Feb-08 11:31N 34°14' E 135°07'0 0.0
2017-Feb-08 10:31N 34°14' E 135°07'0 0.0
2017-Feb-08 09:31N 34°14' E 135°07'0 0.0
2017-Feb-08 08:31N 34°14' E 135°07'0 0.0
2017-Feb-08 07:31N 34°14' E 135°07'0 0.0
2017-Feb-08 06:31N 34°14' E 135°07'0 0.0
2017-Feb-08 05:31N 34°14' E 135°07'0 0.0
2017-Feb-08 04:31N 34°14' E 135°07'0 0.0
2017-Feb-08 03:31N 34°14' E 135°07'0 0.0
2017-Feb-08 02:31N 34°14' E 135°07'0 0.0
2017-Feb-08 01:31N 34°14' E 135°07'0 0.0
2017-Feb-08 00:31N 34°14' E 135°07'0 0.0
2017-Feb-07 23:31N 34°14' E 135°07'0 0.0
2017-Feb-07 22:31N 34°14' E 135°07'0 0.0
2017-Feb-07 21:31N 34°14' E 135°07'0 0.0
2017-Feb-07 20:31N 34°14' E 135°07'0 0.0
2017-Feb-07 19:31N 34°14' E 135°07'0 0.0
2017-Feb-07 18:31N 34°14' E 135°07'0 0.0
2017-Feb-07 17:31N 34°14' E 135°07'0 0.0
2017-Feb-07 16:31N 34°14' E 135°07'0 0.0
2017-Feb-07 15:31N 34°14' E 135°07'0 0.0
2017-Feb-07 14:31N 34°14' E 135°07'0 0.0
2017-Feb-07 13:31N 34°14' E 135°07'0 0.0
2017-Feb-07 12:31N 34°14' E 135°07'0 0.0
2017-Feb-07 11:31N 34°14' E 135°07'0 0.0
2017-Feb-07 10:31N 34°14' E 135°07'0 0.0
2017-Feb-07 09:31N 34°14' E 135°07'0 0.0
2017-Feb-07 08:25N 34°14' E 135°07'0 0.0
2017-Feb-07 07:31N 34°14' E 135°07'0 0.0
2017-Feb-07 06:31N 34°14' E 135°07'0 0.0
2017-Feb-07 05:31N 34°14' E 135°07'0 0.0
2017-Feb-07 04:31N 34°14' E 135°07'0 0.0
2017-Feb-07 03:31N 34°14' E 135°07'0 0.0
2017-Feb-07 02:31N 34°14' E 135°07'0 0.0
2017-Feb-07 01:31N 34°14' E 135°07'0 0.0
2017-Feb-07 00:31N 34°14' E 135°07'0 0.0
2017-Feb-06 23:31N 34°14' E 135°07'0 0.0
2017-Feb-06 22:25N 34°14' E 135°07'0 0.0
2017-Feb-06 21:28N 34°14' E 135°07'0 0.0
2017-Feb-06 20:31N 34°14' E 135°07'0 0.0
2017-Feb-06 19:28N 34°14' E 135°07'0 0.0
2017-Feb-06 18:28N 34°14' E 135°07'0 0.0
2017-Feb-06 17:31N 34°14' E 135°07'0 0.0
2017-Feb-06 16:31N 34°14' E 135°07'0 0.0
2017-Feb-06 15:31N 34°14' E 135°07'0 0.0
2017-Feb-06 14:31N 34°14' E 135°07'0 0.0
2017-Feb-06 13:31N 34°14' E 135°07'0 0.0
2017-Feb-06 12:31N 34°14' E 135°07'0 0.0
2017-Feb-06 11:31N 34°14' E 135°07'  
Track history (hours):
 
Tides and Currents Weather Stations Pressure Air Temp Water Temp Dewpoint Dewpoint Depression Visibility Wind Speed Wind Dir Waves Ship Positions

Cse Prosperity Expr.

Last reported at 2017-Feb-16 10:32 UTC. Time now 2017-Feb-19 14:26 UTC.
Position N 22°42' E 120°05'.

Length 168 m; draft 5.7 m.

Type: Cargo ship. MMSI: 371801000.

Date/timePositionNaut miles runAvg speedWind from/ knotsBaromVisibWave heightAir tempDewpointWater temp
2017-Feb-16 10:32N 22°42' E 120°05'1212.0
2017-Feb-16 09:33N 22°37' E 120°16'2 1.9
2017-Feb-16 08:31N 22°36' E 120°18'0 0.0
2017-Feb-16 07:31N 22°36' E 120°18'0 0.0
2017-Feb-16 06:31N 22°36' E 120°18'0 0.0
2017-Feb-16 05:25N 22°36' E 120°18'0 0.0
2017-Feb-16 04:31N 22°36' E 120°18'0 0.0
2017-Feb-16 03:28N 22°36' E 120°18'0 0.0
2017-Feb-16 02:31N 22°36' E 120°18'0 0.0
2017-Feb-16 01:28N 22°36' E 120°18'0 0.0
2017-Feb-16 00:31N 22°36' E 120°18'0 0.0
2017-Feb-15 23:31N 22°36' E 120°18'0 0.0
2017-Feb-15 22:31N 22°36' E 120°18'0 0.0
2017-Feb-15 21:22N 22°36' E 120°18'0 0.0
2017-Feb-15 20:31N 22°36' E 120°18'0 0.0
2017-Feb-15 19:31N 22°36' E 120°18'0 0.0
2017-Feb-15 18:19N 22°36' E 120°18'0 0.0
2017-Feb-15 17:28N 22°36' E 120°18'0 0.0
2017-Feb-15 16:31N 22°36' E 120°18'0 0.0
2017-Feb-15 15:28N 22°36' E 120°18'0 0.0
2017-Feb-15 14:31N 22°36' E 120°18'0 0.0
2017-Feb-15 13:31N 22°36' E 120°18'0 0.0
2017-Feb-15 12:31N 22°36' E 120°18'0 0.0
2017-Feb-15 11:31N 22°36' E 120°18'0 0.0
2017-Feb-15 10:22N 22°36' E 120°18'0 0.0
2017-Feb-15 09:25N 22°36' E 120°18'0 0.0
2017-Feb-15 08:22N 22°36' E 120°18'0 0.0
2017-Feb-15 07:22N 22°36' E 120°18'0 0.0
2017-Feb-15 06:16N 22°36' E 120°18'0 0.0
2017-Feb-15 05:31N 22°36' E 120°18'0 0.0
2017-Feb-15 04:31N 22°36' E 120°18'1 0.7
2017-Feb-15 03:33N 22°37' E 120°17'6 6.0
2017-Feb-15 02:33N 22°38' E 120°11'1010.2
2017-Feb-15 01:33N 22°47' E 120°06'  
2017-Feb-11 09:20N 33°57' E 134°55'912.0
2017-Feb-11 08:33N 34°05' E 134°60'1110.6
2017-Feb-11 07:34N 34°14' E 135°06'1 0.6
2017-Feb-11 06:31N 34°14' E 135°07'0 0.0
2017-Feb-11 05:31N 34°14' E 135°07'0 0.0
2017-Feb-11 04:31N 34°14' E 135°07'0 0.0
2017-Feb-11 03:31N 34°14' E 135°07'0 0.0
2017-Feb-11 02:28N 34°14' E 135°07'0 0.0
2017-Feb-11 01:16N 34°14' E 135°07'0 0.0
2017-Feb-11 00:13N 34°14' E 135°07'0 0.0
2017-Feb-10 23:31N 34°14' E 135°07'0 0.0
2017-Feb-10 22:31N 34°14' E 135°07'0 0.0
2017-Feb-10 21:31N 34°14' E 135°07'0 0.0
2017-Feb-10 20:31N 34°14' E 135°07'0 0.0
2017-Feb-10 19:31N 34°14' E 135°07'0 0.0
2017-Feb-10 18:31N 34°14' E 135°07'0 0.0
2017-Feb-10 17:31N 34°14' E 135°07'0 0.0
2017-Feb-10 16:31N 34°14' E 135°07'0 0.0
2017-Feb-10 15:25N 34°14' E 135°07'0 0.0
2017-Feb-10 14:31N 34°14' E 135°07'0 0.0
2017-Feb-10 13:31N 34°14' E 135°07'0 0.0
2017-Feb-10 12:31N 34°14' E 135°07'0 0.0
2017-Feb-10 11:31N 34°14' E 135°07'0 0.0
2017-Feb-10 10:31N 34°14' E 135°07'0 0.0
2017-Feb-10 09:31N 34°14' E 135°07'0 0.0
2017-Feb-10 08:31N 34°14' E 135°07'0 0.0
2017-Feb-10 07:31N 34°14' E 135°07'0 0.0
2017-Feb-10 06:31N 34°14' E 135°07'0 0.0
2017-Feb-10 05:31N 34°14' E 135°07'0 0.0
2017-Feb-10 04:31N 34°14' E 135°07'0 0.0
2017-Feb-10 03:31N 34°14' E 135°07'0 0.0
2017-Feb-10 02:31N 34°14' E 135°07'0 0.0
2017-Feb-10 01:31N 34°14' E 135°07'0 0.0
2017-Feb-10 00:31N 34°14' E 135°07'0 0.0
2017-Feb-09 23:25N 34°14' E 135°07'0 0.0
2017-Feb-09 22:31N 34°14' E 135°07'0 0.0
2017-Feb-09 21:31N 34°14' E 135°07'0 0.0
2017-Feb-09 20:31N 34°14' E 135°07'0 0.0
2017-Feb-09 19:28N 34°14' E 135°07'0 0.0
2017-Feb-09 18:31N 34°14' E 135°07'0 0.0
2017-Feb-09 17:31N 34°14' E 135°07'0 0.0
2017-Feb-09 16:31N 34°14' E 135°07'0 0.0
2017-Feb-09 15:31N 34°14' E 135°07'0 0.0
2017-Feb-09 14:31N 34°14' E 135°07'0 0.0
2017-Feb-09 13:31N 34°14' E 135°07'0 0.0
2017-Feb-09 12:31N 34°14' E 135°07'0 0.0
2017-Feb-09 11:31N 34°14' E 135°07'0 0.0
2017-Feb-09 10:31N 34°14' E 135°07'0 0.0
2017-Feb-09 09:28N 34°14' E 135°07'0 0.0
2017-Feb-09 08:31N 34°14' E 135°07'0 0.0
2017-Feb-09 07:31N 34°14' E 135°07'0 0.0
2017-Feb-09 06:28N 34°14' E 135°07'0 0.0
2017-Feb-09 05:28N 34°14' E 135°07'0 0.0
2017-Feb-09 04:28N 34°14' E 135°07'0 0.0
2017-Feb-09 03:25N 34°14' E 135°07'0 0.0
2017-Feb-09 02:31N 34°14' E 135°07'0 0.0
2017-Feb-09 01:31N 34°14' E 135°07'0 0.0
2017-Feb-09 00:31N 34°14' E 135°07'0 0.0
2017-Feb-08 23:31N 34°14' E 135°07'0 0.0
2017-Feb-08 22:22N 34°14' E 135°07'0 0.0
2017-Feb-08 21:31N 34°14' E 135°07'0 0.0
2017-Feb-08 20:28N 34°14' E 135°07'0 0.0
2017-Feb-08 19:25N 34°14' E 135°07'0 0.0
2017-Feb-08 18:31N 34°14' E 135°07'0 0.0
2017-Feb-08 17:31N 34°14' E 135°07'0 0.0
2017-Feb-08 16:31N 34°14' E 135°07'0 0.0
2017-Feb-08 15:31N 34°14' E 135°07'0 0.0
2017-Feb-08 14:31N 34°14' E 135°07'0 0.0
2017-Feb-08 13:31N 34°14' E 135°07'0 0.0
2017-Feb-08 12:31N 34°14' E 135°07'0 0.0
2017-Feb-08 11:31N 34°14' E 135°07'0 0.0
2017-Feb-08 10:31N 34°14' E 135°07'0 0.0
2017-Feb-08 09:31N 34°14' E 135°07'0 0.0
2017-Feb-08 08:31N 34°14' E 135°07'0 0.0
2017-Feb-08 07:31N 34°14' E 135°07'0 0.0
2017-Feb-08 06:31N 34°14' E 135°07'0 0.0
2017-Feb-08 05:31N 34°14' E 135°07'0 0.0
2017-Feb-08 04:31N 34°14' E 135°07'0 0.0
2017-Feb-08 03:31N 34°14' E 135°07'0 0.0
2017-Feb-08 02:31N 34°14' E 135°07'0 0.0
2017-Feb-08 01:31N 34°14' E 135°07'0 0.0
2017-Feb-08 00:31N 34°14' E 135°07'0 0.0
2017-Feb-07 23:31N 34°14' E 135°07'0 0.0
2017-Feb-07 22:31N 34°14' E 135°07'0 0.0
2017-Feb-07 21:31N 34°14' E 135°07'0 0.0
2017-Feb-07 20:31N 34°14' E 135°07'0 0.0
2017-Feb-07 19:31N 34°14' E 135°07'0 0.0
2017-Feb-07 18:31N 34°14' E 135°07'0 0.0
2017-Feb-07 17:31N 34°14' E 135°07'0 0.0
2017-Feb-07 16:31N 34°14' E 135°07'0 0.0
2017-Feb-07 15:31N 34°14' E 135°07'0 0.0
2017-Feb-07 14:31N 34°14' E 135°07'0 0.0
2017-Feb-07 13:31N 34°14' E 135°07'0 0.0
2017-Feb-07 12:31N 34°14' E 135°07'0 0.0
2017-Feb-07 11:31N 34°14' E 135°07'0 0.0
2017-Feb-07 10:31N 34°14' E 135°07'0 0.0
2017-Feb-07 09:31N 34°14' E 135°07'0 0.0
2017-Feb-07 08:25N 34°14' E 135°07'0 0.0
2017-Feb-07 07:31N 34°14' E 135°07'0 0.0
2017-Feb-07 06:31N 34°14' E 135°07'0 0.0
2017-Feb-07 05:31N 34°14' E 135°07'0 0.0
2017-Feb-07 04:31N 34°14' E 135°07'0 0.0
2017-Feb-07 03:31N 34°14' E 135°07'0 0.0
2017-Feb-07 02:31N 34°14' E 135°07'0 0.0
2017-Feb-07 01:31N 34°14' E 135°07'0 0.0
2017-Feb-07 00:31N 34°14' E 135°07'0 0.0
2017-Feb-06 23:31N 34°14' E 135°07'0 0.0
2017-Feb-06 22:25N 34°14' E 135°07'0 0.0
2017-Feb-06 21:28N 34°14' E 135°07'0 0.0
2017-Feb-06 20:31N 34°14' E 135°07'0 0.0
2017-Feb-06 19:28N 34°14' E 135°07'0 0.0
2017-Feb-06 18:28N 34°14' E 135°07'0 0.0
2017-Feb-06 17:31N 34°14' E 135°07'0 0.0
2017-Feb-06 16:31N 34°14' E 135°07'0 0.0
2017-Feb-06 15:31N 34°14' E 135°07'0 0.0
2017-Feb-06 14:31N 34°14' E 135°07'0 0.0
2017-Feb-06 13:31N 34°14' E 135°07'0 0.0
2017-Feb-06 12:31N 34°14' E 135°07'0 0.0
2017-Feb-06 11:31N 34°14' E 135°07'  

Dump ship's entire track history